createdAt,value
2022-12-13T00:02:26.036Z,70.46
2022-12-13T00:04:54.874Z,70.44
2022-12-13T00:07:23.542Z,70.55
2022-12-13T00:09:52.287Z,70.49
2022-12-13T00:12:20.998Z,70.52
2022-12-13T00:14:49.723Z,70.45
2022-12-13T00:17:18.489Z,70.42
2022-12-13T00:19:48.494Z,70.38
2022-12-13T00:22:17.169Z,70.33
2022-12-13T00:24:46.200Z,70.32
2022-12-13T00:27:15.068Z,70.28
2022-12-13T00:29:43.771Z,70.26
2022-12-13T00:32:12.567Z,70.27
2022-12-13T00:34:41.566Z,70.17
2022-12-13T00:37:10.293Z,70.08
2022-12-13T00:39:39.157Z,70.09
2022-12-13T00:42:07.895Z,70.06
2022-12-13T00:44:36.658Z,70.02
2022-12-13T00:47:05.422Z,70.00
2022-12-13T00:49:34.150Z,70.00
2022-12-13T00:52:02.966Z,69.93
2022-12-13T00:54:31.639Z,69.94
2022-12-13T00:57:00.372Z,69.92
2022-12-13T00:59:29.241Z,69.78
2022-12-13T01:01:58.380Z,69.66
2022-12-13T01:04:27.171Z,69.63
2022-12-13T01:06:56.013Z,69.61
2022-12-13T01:09:29.774Z,69.63
2022-12-13T01:12:05.563Z,69.56
2022-12-13T01:14:40.793Z,69.53
2022-12-13T01:17:10.217Z,69.46
2022-12-13T01:19:39.047Z,69.41
2022-12-13T01:22:08.268Z,69.78
2022-12-13T01:24:38.668Z,69.24
2022-12-13T01:27:07.397Z,69.07
2022-12-13T01:29:36.303Z,69.03
2022-12-13T01:32:05.519Z,68.92
2022-12-13T01:34:34.221Z,68.87
2022-12-13T01:37:02.956Z,68.80
2022-12-13T01:39:31.728Z,68.78
2022-12-13T01:42:07.118Z,68.78
2022-12-13T01:45:22.441Z,68.83
2022-12-13T01:47:58.513Z,68.83
2022-12-13T01:50:44.981Z,68.65
2022-12-13T01:53:19.553Z,68.72
2022-12-13T01:56:00.916Z,68.56
2022-12-13T01:58:30.427Z,68.63
2022-12-13T02:01:00.857Z,68.66
2022-12-13T02:03:30.061Z,68.67
2022-12-13T02:06:07.595Z,68.67
2022-12-13T02:08:38.986Z,68.58
2022-12-13T02:11:08.806Z,68.59
2022-12-13T02:13:40.562Z,68.56
2022-12-13T02:16:21.962Z,68.54
2022-12-13T02:19:27.688Z,68.40
2022-12-13T02:22:31.060Z,68.49
2022-12-13T02:25:40.829Z,68.53
2022-12-13T02:28:44.718Z,68.56
2022-12-13T02:31:23.731Z,68.38
2022-12-13T02:34:05.629Z,68.41
2022-12-13T02:37:01.742Z,68.36
2022-12-13T02:39:48.305Z,68.42
2022-12-13T02:42:54.064Z,68.47
2022-12-13T02:45:45.246Z,68.33
2022-12-13T02:48:19.750Z,68.45
2022-12-13T02:50:50.085Z,68.40
2022-12-13T02:53:24.363Z,68.28
2022-12-13T02:55:53.043Z,68.26
2022-12-13T02:58:34.634Z,68.04
2022-12-13T03:01:28.140Z,68.03
2022-12-13T03:04:26.724Z,68.14
2022-12-13T03:07:28.752Z,68.09
2022-12-13T03:10:09.211Z,68.31
2022-12-13T03:13:06.678Z,68.40
2022-12-13T03:15:43.185Z,68.43
2022-12-13T03:18:20.217Z,68.51
2022-12-13T03:21:03.477Z,68.60
2022-12-13T03:23:33.479Z,68.55
2022-12-13T03:26:11.262Z,68.44
2022-12-13T03:28:41.427Z,68.45
2022-12-13T03:31:10.395Z,68.46
2022-12-13T03:33:39.113Z,68.29
2022-12-13T03:36:10.806Z,68.26
2022-12-13T03:38:40.866Z,68.25
2022-12-13T03:41:16.212Z,68.16
2022-12-13T03:43:45.543Z,68.12
2022-12-13T03:46:14.241Z,68.04
2022-12-13T03:48:43.016Z,67.87
2022-12-13T03:51:11.741Z,67.79
2022-12-13T03:53:40.506Z,67.83
2022-12-13T03:56:09.236Z,67.76
2022-12-13T03:58:38.580Z,67.83
2022-12-13T04:01:11.121Z,67.75
2022-12-13T04:03:42.748Z,67.68
2022-12-13T04:06:13.027Z,67.64
2022-12-13T04:08:52.964Z,67.77
2022-12-13T04:11:42.601Z,67.72
2022-12-13T04:14:12.137Z,67.73
2022-12-13T04:16:40.799Z,67.68
2022-12-13T04:19:09.504Z,67.54
2022-12-13T04:21:38.183Z,67.58
2022-12-13T04:24:07.055Z,67.60
2022-12-13T04:26:35.779Z,67.37
2022-12-13T04:29:04.445Z,67.32
2022-12-13T04:31:33.143Z,67.49
2022-12-13T04:34:01.878Z,67.43
2022-12-13T04:36:32.831Z,67.38
2022-12-13T04:39:03.219Z,67.14
2022-12-13T04:41:39.341Z,67.02
2022-12-13T04:44:28.852Z,67.11
2022-12-13T04:47:00.953Z,67.04
2022-12-13T04:49:31.475Z,67.03
2022-12-13T04:52:02.581Z,67.13
2022-12-13T04:54:36.560Z,67.24
2022-12-13T04:57:11.777Z,67.28
2022-12-13T04:59:40.792Z,67.10
2022-12-13T05:02:10.759Z,67.15
2022-12-13T05:04:39.578Z,67.10
2022-12-13T05:07:08.565Z,66.94
2022-12-13T05:09:37.364Z,66.90
2022-12-13T05:12:22.084Z,66.88
2022-12-13T05:14:53.341Z,66.97
2022-12-13T05:17:22.717Z,66.88
2022-12-13T05:19:51.607Z,66.70
2022-12-13T05:22:21.282Z,66.71
2022-12-13T05:24:51.158Z,66.61
2022-12-13T05:27:24.426Z,66.59
2022-12-13T05:30:02.785Z,66.46
2022-12-13T05:32:43.871Z,66.41
2022-12-13T05:35:23.213Z,66.35
2022-12-13T05:37:53.382Z,66.28
2022-12-13T05:40:26.788Z,66.21
2022-12-13T05:43:01.423Z,66.01
2022-12-13T05:45:32.747Z,65.81
2022-12-13T05:48:01.969Z,65.78
2022-12-13T05:50:31.590Z,65.72
2022-12-13T05:53:00.594Z,65.81
2022-12-13T05:55:29.391Z,65.76
2022-12-13T05:58:02.323Z,65.66
2022-12-13T06:00:31.623Z,65.51
2022-12-13T06:03:01.934Z,65.54
2022-12-13T06:05:31.653Z,65.66
2022-12-13T06:08:01.090Z,65.64
2022-12-13T06:10:34.108Z,65.55
2022-12-13T06:13:21.472Z,65.46
2022-12-13T06:16:01.508Z,65.50
2022-12-13T06:18:33.413Z,65.35
2022-12-13T06:21:07.092Z,65.27
2022-12-13T06:23:36.772Z,65.24
2022-12-13T06:26:07.914Z,65.17
2022-12-13T06:28:36.685Z,65.11
2022-12-13T06:31:05.640Z,65.12
2022-12-13T06:33:36.763Z,65.00
2022-12-13T06:36:06.268Z,65.01
2022-12-13T06:38:35.083Z,65.11
2022-12-13T06:41:17.362Z,64.95
2022-12-13T06:43:47.833Z,64.93
2022-12-13T06:46:16.758Z,64.96
2022-12-13T06:48:45.981Z,64.90
2022-12-13T06:51:22.477Z,64.88
2022-12-13T06:53:53.391Z,64.82
2022-12-13T06:56:22.773Z,64.83
2022-12-13T06:58:52.063Z,64.80
2022-12-13T07:01:24.178Z,64.69
2022-12-13T07:03:57.864Z,64.58
2022-12-13T07:06:27.112Z,64.62
2022-12-13T07:08:58.205Z,64.57
2022-12-13T07:11:30.052Z,64.63
2022-12-13T07:14:00.155Z,64.55
2022-12-13T07:16:29.267Z,64.57
2022-12-13T07:19:01.668Z,64.66
2022-12-13T07:21:31.413Z,64.62
2022-12-13T07:24:01.382Z,64.58
2022-12-13T07:26:30.221Z,64.54
2022-12-13T07:28:58.945Z,64.49
2022-12-13T07:31:27.712Z,64.44
2022-12-13T07:33:56.508Z,64.53
2022-12-13T07:36:25.303Z,64.47
2022-12-13T07:38:57.292Z,64.40
2022-12-13T07:41:27.201Z,64.46
2022-12-13T07:43:56.587Z,64.37
2022-12-13T07:46:33.051Z,64.29
2022-12-13T07:49:03.717Z,64.35
2022-12-13T07:51:35.627Z,64.32
2022-12-13T07:54:06.879Z,64.41
2022-12-13T07:56:36.669Z,64.47
2022-12-13T07:59:05.873Z,64.45
2022-12-13T08:01:35.149Z,64.36
2022-12-13T08:04:05.014Z,64.20
2022-12-13T08:06:38.469Z,64.29
2022-12-13T08:09:07.306Z,64.24
2022-12-13T08:11:36.186Z,64.24
2022-12-13T08:14:05.297Z,64.31
2022-12-13T08:16:34.097Z,64.45
2022-12-13T08:19:04.500Z,64.50
2022-12-13T08:21:58.838Z,64.37
2022-12-13T08:24:31.799Z,64.41
2022-12-13T08:27:02.914Z,64.20
2022-12-13T08:29:35.996Z,64.16
2022-12-13T08:32:09.592Z,64.17
2022-12-13T08:34:39.784Z,64.10
2022-12-13T08:37:08.769Z,64.15
2022-12-13T08:39:39.352Z,64.24
2022-12-13T08:42:16.099Z,64.08
2022-12-13T08:44:52.267Z,64.11
2022-12-13T08:47:26.721Z,64.15
2022-12-13T08:50:02.572Z,64.21
2022-12-13T08:52:39.311Z,64.23
2022-12-13T08:55:12.413Z,64.28
2022-12-13T08:57:43.851Z,64.34
2022-12-13T09:00:19.458Z,64.22
2022-12-13T09:02:48.489Z,63.97
2022-12-13T09:05:33.764Z,64.11
2022-12-13T09:08:22.889Z,64.18
2022-12-13T09:11:11.492Z,64.39
2022-12-13T09:13:50.566Z,64.49
2022-12-13T09:16:24.613Z,64.47
2022-12-13T09:18:54.924Z,64.31
2022-12-13T09:21:31.757Z,64.26
2022-12-13T09:24:02.302Z,64.34
2022-12-13T09:26:38.174Z,64.50
2022-12-13T09:29:10.611Z,64.50
2022-12-13T09:31:41.150Z,64.58
2022-12-13T09:34:11.535Z,64.80
2022-12-13T09:36:40.546Z,64.70
2022-12-13T09:39:11.921Z,64.92
2022-12-13T09:42:01.101Z,64.87
2022-12-13T09:44:43.599Z,64.75
2022-12-13T09:47:47.042Z,64.82
2022-12-13T09:50:37.813Z,65.11
2022-12-13T09:53:12.073Z,64.83
2022-12-13T09:55:52.445Z,64.73
2022-12-13T09:58:28.022Z,64.51
2022-12-13T10:00:59.206Z,64.56
2022-12-13T10:03:29.290Z,64.56
2022-12-13T10:06:31.580Z,64.63
2022-12-13T10:09:01.258Z,64.20
2022-12-13T10:11:31.911Z,64.01
2022-12-13T10:14:40.361Z,64.13
2022-12-13T10:17:16.340Z,63.94
2022-12-13T10:19:51.660Z,63.71
2022-12-13T10:22:25.004Z,63.52
2022-12-13T10:24:56.655Z,63.49
2022-12-13T10:27:43.915Z,63.53
2022-12-13T10:30:28.816Z,63.60
2022-12-13T10:33:05.045Z,64.27
2022-12-13T10:35:41.084Z,64.51
2022-12-13T10:38:16.742Z,64.63
2022-12-13T10:40:46.812Z,64.59
2022-12-13T10:43:18.848Z,64.25
2022-12-13T10:45:58.795Z,63.92
2022-12-13T10:48:40.222Z,63.81
2022-12-13T10:51:21.992Z,64.06
2022-12-13T10:53:56.313Z,64.11
2022-12-13T10:56:48.171Z,64.20
2022-12-13T10:59:49.783Z,65.11
2022-12-13T11:02:37.625Z,69.87
2022-12-13T11:05:24.682Z,69.37
2022-12-13T11:07:55.528Z,66.99
2022-12-13T11:10:30.190Z,62.63
2022-12-13T11:13:05.045Z,60.39
2022-12-13T11:15:38.372Z,59.33
2022-12-13T11:18:24.798Z,57.92
2022-12-13T11:21:00.435Z,57.04
2022-12-13T11:23:38.072Z,57.49
2022-12-13T11:26:17.492Z,57.71
2022-12-13T11:29:22.331Z,57.35
2022-12-13T11:32:46.074Z,57.52
2022-12-13T11:35:26.176Z,57.91
2022-12-13T11:38:31.445Z,58.05
2022-12-13T11:41:44.340Z,57.77
2022-12-13T11:44:23.584Z,57.77
2022-12-13T11:46:59.763Z,58.19
2022-12-13T11:49:45.978Z,58.37
2022-12-13T11:52:29.225Z,58.57
2022-12-13T11:55:18.346Z,58.61
2022-12-13T11:58:00.895Z,58.85
2022-12-13T12:01:04.452Z,59.23
2022-12-13T12:03:49.916Z,58.96
2022-12-13T12:06:25.818Z,59.15
2022-12-13T12:09:01.597Z,59.38
2022-12-13T12:11:46.346Z,59.67
2022-12-13T12:14:17.715Z,59.93
2022-12-13T12:16:54.188Z,60.24
2022-12-13T12:19:34.583Z,60.51
2022-12-13T12:22:52.899Z,60.84
2022-12-13T12:25:53.024Z,61.05
2022-12-13T12:29:16.580Z,61.14
2022-12-13T12:32:31.620Z,61.22
2022-12-13T12:35:29.968Z,61.10
2022-12-13T12:38:25.003Z,60.98
2022-12-13T12:41:31.691Z,61.06
2022-12-13T12:44:21.813Z,61.37
2022-12-13T12:47:31.898Z,61.67
2022-12-13T12:50:12.118Z,62.01
2022-12-13T12:53:08.462Z,62.27
2022-12-13T12:55:52.394Z,62.49
2022-12-13T12:58:39.564Z,62.72
2022-12-13T13:01:43.961Z,62.86
2022-12-13T13:04:22.499Z,62.98
2022-12-13T13:07:04.163Z,63.12
2022-12-13T13:09:55.216Z,63.23
2022-12-13T13:12:30.455Z,63.39
2022-12-13T13:15:00.822Z,63.40
2022-12-13T13:17:29.816Z,63.37
2022-12-13T13:20:31.064Z,63.37
2022-12-13T13:23:39.896Z,63.34
2022-12-13T13:26:35.873Z,63.47
2022-12-13T13:28:51.666Z,63.66
2022-12-13T13:31:20.558Z,63.73
2022-12-13T13:33:51.513Z,63.75
2022-12-13T13:36:39.069Z,63.95
2022-12-13T13:39:36.258Z,64.22
2022-12-13T13:42:13.981Z,64.23
2022-12-13T13:44:45.507Z,64.23
2022-12-13T13:47:34.914Z,64.30
2022-12-13T13:50:12.724Z,64.49
2022-12-13T13:52:44.222Z,64.50
2022-12-13T13:56:20.016Z,64.48
2022-12-13T13:59:18.105Z,64.47
2022-12-13T14:02:50.600Z,64.52
2022-12-13T14:05:57.629Z,64.40
2022-12-13T14:08:36.382Z,64.42
2022-12-13T14:11:46.661Z,64.58
2022-12-13T14:14:43.496Z,64.60
2022-12-13T14:17:53.966Z,64.46
2022-12-13T14:20:44.691Z,64.42
2022-12-13T14:23:52.169Z,64.51
2022-12-13T14:26:54.030Z,64.40
2022-12-13T14:29:48.093Z,64.43
2022-12-13T14:32:39.870Z,64.55
2022-12-13T14:35:30.943Z,64.57
2022-12-13T14:38:06.252Z,64.57
2022-12-13T14:40:50.737Z,64.56
2022-12-13T14:43:31.876Z,64.76
2022-12-13T14:46:05.039Z,64.75
2022-12-13T14:48:48.060Z,64.67
2022-12-13T14:51:39.545Z,64.71
2022-12-13T14:54:23.992Z,64.69
2022-12-13T14:57:02.342Z,64.65
2022-12-13T14:59:33.367Z,64.59
2022-12-13T15:02:05.586Z,64.54
2022-12-13T15:04:38.037Z,64.67
2022-12-13T15:07:37.125Z,64.69
2022-12-13T15:10:15.041Z,64.54
2022-12-13T15:12:45.766Z,64.60
2022-12-13T15:15:29.589Z,64.53
2022-12-13T15:18:06.674Z,64.76
2022-12-13T15:20:41.672Z,64.80
2022-12-13T15:23:48.751Z,64.80
2022-12-13T15:26:29.017Z,64.79
2022-12-13T15:29:09.424Z,64.91
2022-12-13T15:31:40.637Z,64.99
2022-12-13T15:34:33.956Z,64.98
2022-12-13T15:37:28.986Z,64.99
2022-12-13T15:40:07.383Z,65.06
2022-12-13T15:42:43.682Z,65.27
2022-12-13T15:45:36.606Z,65.31
2022-12-13T15:48:06.245Z,65.41
2022-12-13T15:50:43.864Z,65.61
2022-12-13T15:53:24.984Z,65.67
2022-12-13T15:55:53.937Z,65.90
2022-12-13T15:58:32.268Z,66.11
2022-12-13T16:01:05.529Z,66.07
2022-12-13T16:03:44.649Z,65.97
2022-12-13T16:06:22.370Z,66.04
2022-12-13T16:08:57.232Z,65.80
2022-12-13T16:11:32.994Z,65.73
2022-12-13T16:14:49.602Z,65.89
2022-12-13T16:17:27.252Z,65.95
2022-12-13T16:20:07.697Z,65.94
2022-12-13T16:22:38.886Z,66.10
2022-12-13T16:25:19.446Z,66.22
2022-12-13T16:27:48.588Z,66.18
2022-12-13T16:30:27.875Z,66.20
2022-12-13T16:33:18.182Z,66.18
2022-12-13T16:35:45.511Z,66.35
2022-12-13T16:38:26.825Z,66.26
2022-12-13T16:41:00.825Z,66.28
2022-12-13T16:43:56.824Z,66.27
2022-12-13T16:47:16.708Z,66.54
2022-12-13T16:49:26.815Z,66.66
2022-12-13T16:51:57.187Z,66.55
2022-12-13T16:54:26.670Z,66.66
2022-12-13T16:56:56.441Z,66.83
2022-12-13T16:59:27.737Z,67.04
2022-12-13T17:01:56.493Z,66.89
2022-12-13T17:04:27.413Z,66.90
2022-12-13T17:06:56.590Z,67.06
2022-12-13T17:09:25.498Z,67.02
2022-12-13T17:11:54.545Z,67.08
2022-12-13T17:14:23.472Z,67.27
2022-12-13T17:16:56.008Z,67.33
2022-12-13T17:19:27.657Z,67.54
2022-12-13T17:21:56.454Z,67.71
2022-12-13T17:24:25.246Z,67.72
2022-12-13T17:26:56.791Z,67.79
2022-12-13T17:29:25.784Z,67.91
2022-12-13T17:31:54.886Z,67.87
2022-12-13T17:34:23.885Z,68.03
2022-12-13T17:36:52.819Z,68.19
2022-12-13T17:39:21.985Z,68.22
2022-12-13T17:41:54.376Z,68.36
2022-12-13T17:44:26.156Z,68.28
2022-12-13T17:46:55.746Z,68.35
2022-12-13T17:49:26.068Z,68.48
2022-12-13T17:51:55.258Z,68.62
2022-12-13T17:54:26.020Z,68.77
2022-12-13T17:56:55.280Z,68.76
2022-12-13T17:59:24.318Z,68.82
2022-12-13T18:01:53.653Z,68.78
2022-12-13T18:04:23.272Z,68.61
2022-12-13T18:06:52.492Z,68.66
2022-12-13T18:09:21.350Z,68.75
2022-12-13T18:11:50.269Z,68.46
2022-12-13T18:14:18.999Z,68.45
2022-12-13T18:16:47.865Z,68.50
2022-12-13T18:19:17.826Z,68.59
2022-12-13T18:21:48.281Z,68.62
2022-12-13T18:24:17.065Z,68.60
2022-12-13T18:26:46.017Z,68.60
2022-12-13T18:29:14.950Z,68.79
2022-12-13T18:31:44.256Z,68.86
2022-12-13T18:34:13.202Z,68.87
2022-12-13T18:36:42.060Z,68.93
2022-12-13T18:39:10.980Z,68.86
2022-12-13T18:41:40.397Z,68.79
2022-12-13T18:44:11.199Z,68.71
2022-12-13T18:46:44.766Z,68.68
2022-12-13T18:49:14.933Z,68.84
2022-12-13T18:51:43.749Z,68.88
2022-12-13T18:54:12.637Z,68.84
2022-12-13T18:56:44.190Z,69.01
2022-12-13T18:59:13.082Z,69.17
2022-12-13T19:01:42.226Z,69.24
2022-12-13T19:04:11.149Z,69.40
2022-12-13T19:06:39.897Z,69.43
2022-12-13T19:09:08.702Z,69.56
2022-12-13T19:11:37.561Z,69.62
2022-12-13T19:14:06.312Z,69.80
2022-12-13T19:16:35.569Z,69.87
2022-12-13T19:19:04.548Z,69.82
2022-12-13T19:21:33.667Z,69.80
2022-12-13T19:24:02.546Z,69.78
2022-12-13T19:26:32.549Z,69.54
2022-12-13T19:29:02.282Z,69.53
2022-12-13T19:31:32.675Z,69.65
2022-12-13T19:34:02.518Z,69.84
2022-12-13T19:36:32.896Z,69.94
2022-12-13T19:39:01.646Z,70.04
2022-12-13T19:41:32.380Z,70.00
2022-12-13T19:44:05.179Z,69.89
2022-12-13T19:46:34.376Z,69.99
2022-12-13T19:49:04.489Z,70.06
2022-12-13T19:51:39.102Z,70.02
2022-12-13T19:54:10.579Z,69.98
2022-12-13T19:56:39.400Z,69.96
2022-12-13T19:59:08.264Z,69.94
2022-12-13T20:01:38.444Z,69.89
2022-12-13T20:04:07.267Z,69.79
2022-12-13T20:06:36.364Z,69.57
2022-12-13T20:09:07.423Z,69.58
2022-12-13T20:11:36.649Z,69.64
2022-12-13T20:14:05.434Z,69.73
2022-12-13T20:16:34.385Z,69.71
2022-12-13T20:19:03.242Z,70.01
2022-12-13T20:21:32.016Z,70.23
2022-12-13T20:24:00.965Z,70.49
2022-12-13T20:26:31.930Z,70.73
2022-12-13T20:29:00.918Z,70.92
2022-12-13T20:31:34.613Z,71.00
2022-12-13T20:34:09.123Z,71.09
2022-12-13T20:36:37.921Z,71.19
2022-12-13T20:39:13.699Z,71.12
2022-12-13T20:41:42.529Z,71.27
2022-12-13T20:44:12.683Z,71.27
2022-12-13T20:46:41.741Z,71.35
2022-12-13T20:49:10.748Z,71.25
2022-12-13T20:51:41.738Z,71.25
2022-12-13T20:54:10.763Z,71.33
2022-12-13T20:56:40.248Z,71.42
2022-12-13T20:59:13.033Z,71.43
2022-12-13T21:01:44.795Z,71.51
2022-12-13T21:04:18.348Z,71.46
2022-12-13T21:06:47.195Z,71.53
2022-12-13T21:09:16.051Z,71.35
2022-12-13T21:11:48.172Z,71.35
2022-12-13T21:14:22.948Z,71.47
2022-12-13T21:16:57.221Z,71.39
2022-12-13T21:19:38.939Z,71.28
2022-12-13T21:22:08.649Z,70.99
2022-12-13T21:24:37.446Z,70.74
2022-12-13T21:27:07.904Z,70.82
2022-12-13T21:29:36.702Z,70.83
2022-12-13T21:32:06.345Z,70.81
2022-12-13T21:34:35.514Z,70.94
2022-12-13T21:37:05.305Z,70.99
2022-12-13T21:39:34.096Z,70.84
2022-12-13T21:42:05.968Z,70.77
2022-12-13T21:44:34.661Z,70.65
2022-12-13T21:47:13.603Z,70.40
2022-12-13T21:49:48.402Z,70.50
2022-12-13T21:52:18.536Z,70.62
2022-12-13T21:54:47.357Z,70.63
2022-12-13T21:57:34.681Z,70.56
2022-12-13T22:00:05.004Z,70.53
2022-12-13T22:02:42.055Z,70.36
2022-12-13T22:05:11.389Z,70.44
2022-12-13T22:07:40.197Z,70.52
2022-12-13T22:10:09.495Z,70.75
2022-12-13T22:12:41.350Z,70.66
2022-12-13T22:15:14.568Z,70.71
2022-12-13T22:17:43.536Z,70.58
2022-12-13T22:20:15.488Z,70.49
2022-12-13T22:22:45.131Z,70.44
2022-12-13T22:25:14.496Z,70.45
2022-12-13T22:27:43.317Z,70.55
2022-12-13T22:30:12.624Z,70.50
2022-12-13T22:32:42.430Z,70.59
2022-12-13T22:35:12.008Z,70.34
2022-12-13T22:37:40.694Z,70.15
2022-12-13T22:40:10.723Z,70.23
2022-12-13T22:42:39.360Z,70.33
2022-12-13T22:45:08.531Z,70.31
2022-12-13T22:47:37.197Z,70.42
2022-12-13T22:50:07.024Z,70.54
2022-12-13T22:52:35.779Z,70.54
2022-12-13T22:55:05.067Z,70.34
2022-12-13T22:57:33.829Z,70.40
2022-12-13T23:00:02.615Z,70.42
2022-12-13T23:02:31.805Z,70.12
2022-12-13T23:05:00.918Z,69.96
2022-12-13T23:07:29.607Z,70.02
2022-12-13T23:09:58.266Z,70.27
2022-12-13T23:12:45.485Z,70.20
2022-12-13T23:15:14.201Z,70.42
2022-12-13T23:17:42.913Z,70.61
2022-12-13T23:20:12.767Z,70.79
2022-12-13T23:22:41.497Z,70.70
2022-12-13T23:25:10.258Z,70.65
2022-12-13T23:27:39.124Z,70.71
2022-12-13T23:30:09.066Z,70.69
2022-12-13T23:32:37.774Z,70.64
2022-12-13T23:35:09.299Z,70.60
2022-12-13T23:37:38.634Z,70.58
2022-12-13T23:40:09.108Z,70.41
2022-12-13T23:42:37.840Z,70.21
2022-12-13T23:45:07.760Z,69.93
2022-12-13T23:47:36.422Z,70.04
2022-12-13T23:50:05.828Z,70.12
2022-12-13T23:52:34.613Z,70.16
2022-12-13T23:55:04.989Z,69.82
2022-12-13T23:57:33.772Z,69.76
